LHSM Airport Information

Runway Information
Runway 16 Length 8202 ft width 197 ft
Elevation 408 ft Threshold ft Heading 165
Runway 34 Length 8202 ft Width 197 ft
Elevation 399 ft Threshold ft Heading 345
Runway 17R Length 3100 ft width 212 ft
Elevation ft Threshold ft Heading 167
Runway 35L Length 3100 ft Width 212 ft
Elevation ft Threshold ft Heading 347
Airport Frequencies
Type AFIS Name INFO Frequency 127.6 MHZ
Type TWR Name TWR Frequency 127.6 MHZ
Airport Navaids
Type NDB Name Sarmellek Frequency 428 KHZ
Airport Weather Information & NOTAM
ADDS - METARS form results

(0933 UTC 27 January 2023)
Data provider http://aviationweather.gov/metar/data/
 
METAR text: LHSM 270915Z AUTO 36007KT 320V030 CAVOK 01/M01 Q1017 NOSIG
Conditions at: LHSM (BALATON , HU) observed 0915 UTC 27 January 2023
Temperature: 1.0°C (34°F)
Dewpoint: -1.0°C (30°F) [RH = 86%]
Pressure (altimeter): 30.03 inches Hg (1017.0 mb)
Winds: from the N (360 degrees) at 8 MPH (7 knots; 3.6 m/s)
Visibility: 6 or more miles (10+ km)
Ceiling: ceiling and visibility are OK
Clouds: unknown
Weather: no significant weather observed at this time

METAR text: LHSM 270845Z AUTO 35004KT 300V020 CAVOK 00/M01 Q1017 NOSIG
Conditions at: LHSM (BALATON , HU) observed 0845 UTC 27 January 2023
Temperature: 0.0°C (32°F)
Dewpoint: -1.0°C (30°F) [RH = 93%]
Pressure (altimeter): 30.03 inches Hg (1017.0 mb)
Winds: from the N (350 degrees) at 5 MPH (4 knots; 2.1 m/s)
Visibility: 6 or more miles (10+ km)
Ceiling: ceiling and visibility are OK
Clouds: unknown
Weather: no significant weather observed at this time

Forecast for: LHSM (BALATON , HU)
Text: TAF LHSM 270815Z 2709/2718 34007KT CAVOK
Forecast period: 0900 to 1800 UTC 27 January 2023
Forecast type: FROM: standard forecast or significant change
Winds: from the NNW (340 degrees) at 8 MPH (7 knots; 3.6 m/s)
Visibility: 6 or more miles (10+ km)
Ceiling: unknown
Clouds: missing
Weather: NSW  (no significant weather)
Text: BECMG 2709/2712 01012G22KT 9999 BKN025 OVC070
Forecast period: 0900 to 1800 UTC 27 January 2023
Forecast type: BECOMING: Conditions expected to become as follows by 1200 UTC 27 January 2023
Winds: from the N (10 degrees) at 14 MPH (12 knots; 6.2 m/s)
gusting to 25 MPH (22 knots; 11.3 m/s)
Visibility: 6 or more miles (10+ km)
Ceiling: 2500 feet AGL
Clouds: broken clouds at 2500 feet AGL
overcast cloud deck at 7000 feet AGL
Weather: NSW  (no significant weather)